Terminal Aerodrome Forecast
Issued by NWS Amarillo, TX

Home | Current Version | Previous Version | Text Only | Print | Product List | Glossary On
Versions: 1 2 3 4 5 6 7 8 9 10 11 12 13 14 15 16 17 18 19 20 21 22 23 24 25 26
579
FTUS44 KAMA 051728
TAFDHT
TAF
KDHT 051728Z 0518/0618 26012KT P6SM SCT300
     FM052100 31010KT P6SM SCT300
     FM060400 01018G28KT P6SM BKN300=

USA.gov is the U.S. government's official web portal to all federal, state and local government web resources and services.